sensor_id;sensor_type;location;lat;lon;timestamp;P1;durP1;ratioP1;P2;durP2;ratioP2
26540;SDS011;14206;50.202;10.948;2023-06-14T00:02:14;2.78;;;1.92;;
26540;SDS011;14206;50.202;10.948;2023-06-14T00:04:42;2.20;;;1.80;;
26540;SDS011;14206;50.202;10.948;2023-06-14T00:07:09;1.90;;;1.70;;
26540;SDS011;14206;50.202;10.948;2023-06-14T00:09:39;1.88;;;1.67;;
26540;SDS011;14206;50.202;10.948;2023-06-14T00:12:06;2.15;;;1.90;;
26540;SDS011;14206;50.202;10.948;2023-06-14T00:14:33;1.63;;;1.52;;
26540;SDS011;14206;50.202;10.948;2023-06-14T00:17:00;1.80;;;1.65;;
26540;SDS011;14206;50.202;10.948;2023-06-14T00:19:27;1.92;;;1.73;;
26540;SDS011;14206;50.202;10.948;2023-06-14T00:21:55;1.60;;;1.50;;
26540;SDS011;14206;50.202;10.948;2023-06-14T00:24:23;2.20;;;1.75;;
26540;SDS011;14206;50.202;10.948;2023-06-14T00:26:50;1.92;;;1.80;;
26540;SDS011;14206;50.202;10.948;2023-06-14T00:29:17;2.00;;;1.80;;
26540;SDS011;14206;50.202;10.948;2023-06-14T00:31:43;2.10;;;1.90;;
26540;SDS011;14206;50.202;10.948;2023-06-14T00:34:10;2.00;;;1.80;;
26540;SDS011;14206;50.202;10.948;2023-06-14T00:36:40;2.25;;;2.05;;
26540;SDS011;14206;50.202;10.948;2023-06-14T00:39:07;2.45;;;1.85;;
26540;SDS011;14206;50.202;10.948;2023-06-14T00:41:34;3.17;;;2.17;;
26540;SDS011;14206;50.202;10.948;2023-06-14T00:44:01;1.80;;;1.70;;
26540;SDS011;14206;50.202;10.948;2023-06-14T00:46:28;2.67;;;2.13;;
26540;SDS011;14206;50.202;10.948;2023-06-14T00:48:56;1.80;;;1.70;;
26540;SDS011;14206;50.202;10.948;2023-06-14T00:51:24;2.30;;;1.55;;
26540;SDS011;14206;50.202;10.948;2023-06-14T00:53:52;2.20;;;2.00;;
26540;SDS011;14206;50.202;10.948;2023-06-14T00:56:19;1.80;;;1.70;;
26540;SDS011;14206;50.202;10.948;2023-06-14T00:58:49;1.95;;;1.85;;
26540;SDS011;14206;50.202;10.948;2023-06-14T01:01:17;2.00;;;1.80;;
26540;SDS011;14206;50.202;10.948;2023-06-14T01:03:44;1.98;;;1.80;;
26540;SDS011;14206;50.202;10.948;2023-06-14T01:06:18;2.00;;;1.75;;
26540;SDS011;14206;50.202;10.948;2023-06-14T01:12:13;2.00;;;1.80;;
26540;SDS011;14206;50.202;10.948;2023-06-14T01:15:02;2.88;;;2.00;;
26540;SDS011;14206;50.202;10.948;2023-06-14T01:17:30;1.90;;;1.70;;
26540;SDS011;14206;50.202;10.948;2023-06-14T01:20:00;3.53;;;2.00;;
26540;SDS011;14206;50.202;10.948;2023-06-14T01:22:29;2.05;;;1.83;;
26540;SDS011;14206;50.202;10.948;2023-06-14T01:24:56;1.88;;;1.70;;
26540;SDS011;14206;50.202;10.948;2023-06-14T01:27:24;4.15;;;1.92;;
26540;SDS011;14206;50.202;10.948;2023-06-14T01:29:55;2.15;;;1.92;;
26540;SDS011;14206;50.202;10.948;2023-06-14T01:32:28;2.05;;;1.85;;
26540;SDS011;14206;50.202;10.948;2023-06-14T01:34:56;2.30;;;1.88;;
26540;SDS011;14206;50.202;10.948;2023-06-14T01:37:27;2.10;;;1.70;;
26540;SDS011;14206;50.202;10.948;2023-06-14T01:39:54;2.72;;;1.60;;
26540;SDS011;14206;50.202;10.948;2023-06-14T01:42:21;1.63;;;1.52;;
26540;SDS011;14206;50.202;10.948;2023-06-14T01:44:49;2.45;;;1.60;;
26540;SDS011;14206;50.202;10.948;2023-06-14T01:47:19;2.65;;;2.17;;
26540;SDS011;14206;50.202;10.948;2023-06-14T01:49:47;1.90;;;1.80;;
26540;SDS011;14206;50.202;10.948;2023-06-14T01:52:14;2.17;;;1.88;;
26540;SDS011;14206;50.202;10.948;2023-06-14T01:54:42;2.00;;;1.80;;
26540;SDS011;14206;50.202;10.948;2023-06-14T01:57:09;2.20;;;2.00;;
26540;SDS011;14206;50.202;10.948;2023-06-14T01:59:37;1.80;;;1.70;;
26540;SDS011;14206;50.202;10.948;2023-06-14T02:02:04;1.90;;;1.70;;
26540;SDS011;14206;50.202;10.948;2023-06-14T02:04:31;2.38;;;1.90;;
26540;SDS011;14206;50.202;10.948;2023-06-14T02:06:59;1.85;;;1.75;;
26540;SDS011;14206;50.202;10.948;2023-06-14T02:09:26;2.55;;;1.85;;
26540;SDS011;14206;50.202;10.948;2023-06-14T02:11:53;1.90;;;1.80;;
26540;SDS011;14206;50.202;10.948;2023-06-14T02:14:20;2.17;;;1.90;;
26540;SDS011;14206;50.202;10.948;2023-06-14T02:16:47;2.08;;;1.90;;
26540;SDS011;14206;50.202;10.948;2023-06-14T02:19:18;2.28;;;2.08;;
26540;SDS011;14206;50.202;10.948;2023-06-14T02:21:46;2.03;;;1.83;;
26540;SDS011;14206;50.202;10.948;2023-06-14T02:24:13;2.20;;;2.00;;
26540;SDS011;14206;50.202;10.948;2023-06-14T02:26:41;2.17;;;2.00;;
26540;SDS011;14206;50.202;10.948;2023-06-14T02:29:11;2.33;;;2.03;;
26540;SDS011;14206;50.202;10.948;2023-06-14T02:31:41;2.63;;;2.10;;
26540;SDS011;14206;50.202;10.948;2023-06-14T02:34:08;3.85;;;1.92;;
26540;SDS011;14206;50.202;10.948;2023-06-14T02:36:35;2.17;;;1.98;;
26540;SDS011;14206;50.202;10.948;2023-06-14T02:39:08;2.85;;;2.10;;
26540;SDS011;14206;50.202;10.948;2023-06-14T02:41:35;2.80;;;2.00;;
26540;SDS011;14206;50.202;10.948;2023-06-14T02:44:03;2.83;;;2.20;;
26540;SDS011;14206;50.202;10.948;2023-06-14T02:46:31;2.45;;;2.22;;
26540;SDS011;14206;50.202;10.948;2023-06-14T02:48:58;2.17;;;1.90;;
26540;SDS011;14206;50.202;10.948;2023-06-14T02:51:26;2.60;;;2.30;;
26540;SDS011;14206;50.202;10.948;2023-06-14T02:53:52;2.70;;;2.13;;
26540;SDS011;14206;50.202;10.948;2023-06-14T02:56:19;2.10;;;1.90;;
26540;SDS011;14206;50.202;10.948;2023-06-14T02:58:49;2.17;;;1.98;;
26540;SDS011;14206;50.202;10.948;2023-06-14T03:01:17;2.10;;;1.90;;
26540;SDS011;14206;50.202;10.948;2023-06-14T03:03:47;1.83;;;1.73;;
26540;SDS011;14206;50.202;10.948;2023-06-14T03:06:14;1.75;;;1.65;;
26540;SDS011;14206;50.202;10.948;2023-06-14T03:08:45;2.10;;;1.90;;
26540;SDS011;14206;50.202;10.948;2023-06-14T03:11:15;1.92;;;1.80;;
26540;SDS011;14206;50.202;10.948;2023-06-14T03:13:43;1.90;;;1.70;;
26540;SDS011;14206;50.202;10.948;2023-06-14T03:16:12;2.20;;;1.67;;
26540;SDS011;14206;50.202;10.948;2023-06-14T03:18:39;1.83;;;1.73;;
26540;SDS011;14206;50.202;10.948;2023-06-14T03:21:06;2.10;;;1.83;;
26540;SDS011;14206;50.202;10.948;2023-06-14T03:23:37;1.98;;;1.70;;
26540;SDS011;14206;50.202;10.948;2023-06-14T03:26:04;2.13;;;1.70;;
26540;SDS011;14206;50.202;10.948;2023-06-14T03:28:31;2.15;;;1.70;;
26540;SDS011;14206;50.202;10.948;2023-06-14T03:30:58;1.70;;;1.60;;
26540;SDS011;14206;50.202;10.948;2023-06-14T03:33:29;1.77;;;1.60;;
26540;SDS011;14206;50.202;10.948;2023-06-14T03:35:56;1.90;;;1.80;;
26540;SDS011;14206;50.202;10.948;2023-06-14T03:38:23;2.05;;;1.60;;
26540;SDS011;14206;50.202;10.948;2023-06-14T03:40:51;1.85;;;1.75;;
26540;SDS011;14206;50.202;10.948;2023-06-14T03:43:18;2.28;;;1.70;;
26540;SDS011;14206;50.202;10.948;2023-06-14T03:45:45;2.20;;;1.60;;
26540;SDS011;14206;50.202;10.948;2023-06-14T03:48:13;2.38;;;2.05;;
26540;SDS011;14206;50.202;10.948;2023-06-14T03:50:40;2.10;;;1.90;;
26540;SDS011;14206;50.202;10.948;2023-06-14T03:53:09;2.28;;;1.70;;
26540;SDS011;14206;50.202;10.948;2023-06-14T03:55:39;1.95;;;1.75;;
26540;SDS011;14206;50.202;10.948;2023-06-14T03:58:10;2.40;;;2.17;;
26540;SDS011;14206;50.202;10.948;2023-06-14T04:00:39;2.75;;;2.22;;
26540;SDS011;14206;50.202;10.948;2023-06-14T04:03:06;2.45;;;1.67;;
26540;SDS011;14206;50.202;10.948;2023-06-14T04:05:34;1.70;;;1.60;;
26540;SDS011;14206;50.202;10.948;2023-06-14T04:08:02;1.88;;;1.70;;
26540;SDS011;14206;50.202;10.948;2023-06-14T04:10:30;1.90;;;1.70;;
26540;SDS011;14206;50.202;10.948;2023-06-14T04:12:57;2.75;;;1.88;;
26540;SDS011;14206;50.202;10.948;2023-06-14T04:15:26;2.00;;;1.80;;
26540;SDS011;14206;50.202;10.948;2023-06-14T04:18:04;2.17;;;1.90;;
26540;SDS011;14206;50.202;10.948;2023-06-14T04:20:31;2.30;;;2.10;;
26540;SDS011;14206;50.202;10.948;2023-06-14T04:23:10;2.20;;;1.95;;
26540;SDS011;14206;50.202;10.948;2023-06-14T04:25:39;3.25;;;2.13;;
26540;SDS011;14206;50.202;10.948;2023-06-14T04:28:06;2.33;;;2.13;;
26540;SDS011;14206;50.202;10.948;2023-06-14T04:30:37;2.33;;;1.83;;
26540;SDS011;14206;50.202;10.948;2023-06-14T04:33:07;2.10;;;1.90;;
26540;SDS011;14206;50.202;10.948;2023-06-14T04:35:36;1.90;;;1.70;;
26540;SDS011;14206;50.202;10.948;2023-06-14T04:38:03;2.40;;;1.88;;
26540;SDS011;14206;50.202;10.948;2023-06-14T04:40:32;1.88;;;1.73;;
26540;SDS011;14206;50.202;10.948;2023-06-14T04:43:00;2.08;;;1.80;;
26540;SDS011;14206;50.202;10.948;2023-06-14T04:45:27;2.40;;;2.10;;
26540;SDS011;14206;50.202;10.948;2023-06-14T04:47:58;2.60;;;1.92;;
26540;SDS011;14206;50.202;10.948;2023-06-14T04:50:27;2.35;;;2.10;;
26540;SDS011;14206;50.202;10.948;2023-06-14T04:52:55;2.95;;;2.05;;
26540;SDS011;14206;50.202;10.948;2023-06-14T04:55:23;2.70;;;1.90;;
26540;SDS011;14206;50.202;10.948;2023-06-14T04:57:51;2.25;;;2.05;;
26540;SDS011;14206;50.202;10.948;2023-06-14T05:00:20;2.15;;;1.95;;
26540;SDS011;14206;50.202;10.948;2023-06-14T05:02:47;2.50;;;2.10;;
26540;SDS011;14206;50.202;10.948;2023-06-14T05:05:15;3.25;;;1.60;;
26540;SDS011;14206;50.202;10.948;2023-06-14T05:07:44;1.85;;;1.55;;
26540;SDS011;14206;50.202;10.948;2023-06-14T05:10:11;1.90;;;1.75;;
26540;SDS011;14206;50.202;10.948;2023-06-14T05:12:38;1.70;;;1.60;;
26540;SDS011;14206;50.202;10.948;2023-06-14T05:15:07;3.67;;;1.77;;
26540;SDS011;14206;50.202;10.948;2023-06-14T05:17:35;2.78;;;2.47;;
26540;SDS011;14206;50.202;10.948;2023-06-14T05:20:03;2.45;;;2.25;;
26540;SDS011;14206;50.202;10.948;2023-06-14T05:22:30;3.97;;;2.92;;
26540;SDS011;14206;50.202;10.948;2023-06-14T05:24:57;2.33;;;2.13;;
26540;SDS011;14206;50.202;10.948;2023-06-14T05:27:25;2.60;;;2.00;;
26540;SDS011;14206;50.202;10.948;2023-06-14T05:29:52;1.90;;;1.80;;
26540;SDS011;14206;50.202;10.948;2023-06-14T05:32:22;2.97;;;1.80;;
26540;SDS011;14206;50.202;10.948;2023-06-14T05:34:49;2.47;;;2.10;;
26540;SDS011;14206;50.202;10.948;2023-06-14T05:37:16;2.22;;;2.03;;
26540;SDS011;14206;50.202;10.948;2023-06-14T05:39:43;2.10;;;1.90;;
26540;SDS011;14206;50.202;10.948;2023-06-14T05:42:10;1.77;;;1.67;;
26540;SDS011;14206;50.202;10.948;2023-06-14T05:44:37;2.35;;;2.15;;
26540;SDS011;14206;50.202;10.948;2023-06-14T05:47:04;3.95;;;2.38;;
26540;SDS011;14206;50.202;10.948;2023-06-14T05:49:31;4.18;;;2.35;;
26540;SDS011;14206;50.202;10.948;2023-06-14T05:51:58;2.75;;;2.38;;
26540;SDS011;14206;50.202;10.948;2023-06-14T05:54:25;2.00;;;1.90;;
26540;SDS011;14206;50.202;10.948;2023-06-14T05:56:52;3.65;;;1.65;;
26540;SDS011;14206;50.202;10.948;2023-06-14T05:59:19;2.30;;;1.70;;
26540;SDS011;14206;50.202;10.948;2023-06-14T06:01:45;1.90;;;1.75;;
26540;SDS011;14206;50.202;10.948;2023-06-14T06:04:13;2.28;;;2.00;;
26540;SDS011;14206;50.202;10.948;2023-06-14T06:06:39;1.60;;;1.50;;
26540;SDS011;14206;50.202;10.948;2023-06-14T06:09:06;2.17;;;1.92;;
26540;SDS011;14206;50.202;10.948;2023-06-14T06:11:33;2.95;;;2.38;;
26540;SDS011;14206;50.202;10.948;2023-06-14T06:14:14;2.55;;;1.75;;
26540;SDS011;14206;50.202;10.948;2023-06-14T06:16:41;1.67;;;1.50;;
26540;SDS011;14206;50.202;10.948;2023-06-14T06:19:08;2.60;;;1.83;;
26540;SDS011;14206;50.202;10.948;2023-06-14T06:21:35;2.92;;;2.15;;
26540;SDS011;14206;50.202;10.948;2023-06-14T06:24:01;1.50;;;1.40;;
26540;SDS011;14206;50.202;10.948;2023-06-14T06:26:31;1.60;;;1.50;;
26540;SDS011;14206;50.202;10.948;2023-06-14T06:28:58;2.22;;;2.03;;
26540;SDS011;14206;50.202;10.948;2023-06-14T06:31:25;2.15;;;1.88;;
26540;SDS011;14206;50.202;10.948;2023-06-14T06:33:54;3.20;;;1.90;;
26540;SDS011;14206;50.202;10.948;2023-06-14T06:36:21;2.22;;;1.73;;
26540;SDS011;14206;50.202;10.948;2023-06-14T06:38:48;2.50;;;1.90;;
26540;SDS011;14206;50.202;10.948;2023-06-14T06:41:15;1.98;;;1.77;;
26540;SDS011;14206;50.202;10.948;2023-06-14T06:43:42;2.08;;;1.67;;
26540;SDS011;14206;50.202;10.948;2023-06-14T06:46:09;3.80;;;1.60;;
26540;SDS011;14206;50.202;10.948;2023-06-14T06:48:36;1.50;;;1.40;;
26540;SDS011;14206;50.202;10.948;2023-06-14T06:51:02;1.50;;;1.40;;
26540;SDS011;14206;50.202;10.948;2023-06-14T06:53:29;2.58;;;1.67;;
26540;SDS011;14206;50.202;10.948;2023-06-14T06:56:08;1.50;;;1.40;;
26540;SDS011;14206;50.202;10.948;2023-06-14T06:58:35;2.00;;;1.80;;
26540;SDS011;14206;50.202;10.948;2023-06-14T07:01:02;2.28;;;1.40;;
26540;SDS011;14206;50.202;10.948;2023-06-14T07:03:28;3.00;;;1.60;;
26540;SDS011;14206;50.202;10.948;2023-06-14T07:05:56;1.63;;;1.40;;
26540;SDS011;14206;50.202;10.948;2023-06-14T07:08:23;2.00;;;1.80;;
26540;SDS011;14206;50.202;10.948;2023-06-14T07:10:50;2.25;;;1.70;;
26540;SDS011;14206;50.202;10.948;2023-06-14T07:13:17;3.85;;;1.90;;
26540;SDS011;14206;50.202;10.948;2023-06-14T07:15:43;3.65;;;1.88;;
26540;SDS011;14206;50.202;10.948;2023-06-14T07:18:10;1.67;;;1.58;;
26540;SDS011;14206;50.202;10.948;2023-06-14T07:20:41;2.08;;;1.73;;
26540;SDS011;14206;50.202;10.948;2023-06-14T07:23:09;1.50;;;1.40;;
26540;SDS011;14206;50.202;10.948;2023-06-14T07:25:37;1.25;;;1.15;;
26540;SDS011;14206;50.202;10.948;2023-06-14T07:28:03;3.38;;;1.40;;
26540;SDS011;14206;50.202;10.948;2023-06-14T07:30:30;3.33;;;1.63;;
26540;SDS011;14206;50.202;10.948;2023-06-14T07:32:57;1.40;;;1.30;;
26540;SDS011;14206;50.202;10.948;2023-06-14T07:35:24;1.08;;;1.00;;
26540;SDS011;14206;50.202;10.948;2023-06-14T07:37:51;1.85;;;1.63;;
26540;SDS011;14206;50.202;10.948;2023-06-14T07:40:19;1.80;;;1.50;;
26540;SDS011;14206;50.202;10.948;2023-06-14T07:42:45;1.45;;;1.35;;
26540;SDS011;14206;50.202;10.948;2023-06-14T07:45:13;1.23;;;1.13;;
26540;SDS011;14206;50.202;10.948;2023-06-14T07:47:41;1.27;;;1.17;;
26540;SDS011;14206;50.202;10.948;2023-06-14T07:50:09;2.10;;;1.40;;
26540;SDS011;14206;50.202;10.948;2023-06-14T07:52:37;1.38;;;1.27;;
26540;SDS011;14206;50.202;10.948;2023-06-14T07:55:04;1.23;;;1.13;;
26540;SDS011;14206;50.202;10.948;2023-06-14T07:57:31;1.58;;;1.25;;
26540;SDS011;14206;50.202;10.948;2023-06-14T07:59:58;1.20;;;1.02;;
26540;SDS011;14206;50.202;10.948;2023-06-14T08:02:25;1.13;;;1.05;;
26540;SDS011;14206;50.202;10.948;2023-06-14T08:04:52;1.10;;;1.00;;
26540;SDS011;14206;50.202;10.948;2023-06-14T08:07:20;1.08;;;1.02;;
26540;SDS011;14206;50.202;10.948;2023-06-14T08:09:47;1.05;;;0.95;;
26540;SDS011;14206;50.202;10.948;2023-06-14T08:12:14;1.10;;;1.00;;
26540;SDS011;14206;50.202;10.948;2023-06-14T08:14:41;2.22;;;1.30;;
26540;SDS011;14206;50.202;10.948;2023-06-14T08:17:08;1.42;;;0.90;;
26540;SDS011;14206;50.202;10.948;2023-06-14T08:19:35;1.20;;;1.00;;
26540;SDS011;14206;50.202;10.948;2023-06-14T08:22:03;1.95;;;1.40;;
26540;SDS011;14206;50.202;10.948;2023-06-14T08:24:30;1.08;;;1.00;;
26540;SDS011;14206;50.202;10.948;2023-06-14T08:26:57;1.15;;;0.90;;
26540;SDS011;14206;50.202;10.948;2023-06-14T08:29:24;1.38;;;1.20;;
26540;SDS011;14206;50.202;10.948;2023-06-14T08:31:50;0.70;;;0.68;;
26540;SDS011;14206;50.202;10.948;2023-06-14T08:34:17;1.08;;;0.95;;
26540;SDS011;14206;50.202;10.948;2023-06-14T08:36:44;1.08;;;0.90;;
26540;SDS011;14206;50.202;10.948;2023-06-14T08:39:11;0.90;;;0.90;;
26540;SDS011;14206;50.202;10.948;2023-06-14T08:41:38;1.50;;;1.00;;
26540;SDS011;14206;50.202;10.948;2023-06-14T08:44:05;1.05;;;0.93;;
26540;SDS011;14206;50.202;10.948;2023-06-14T08:46:33;1.05;;;0.93;;
26540;SDS011;14206;50.202;10.948;2023-06-14T08:49:01;1.35;;;0.90;;
26540;SDS011;14206;50.202;10.948;2023-06-14T08:51:29;1.55;;;0.98;;
26540;SDS011;14206;50.202;10.948;2023-06-14T08:54:00;1.05;;;1.00;;
26540;SDS011;14206;50.202;10.948;2023-06-14T08:56:28;1.42;;;1.08;;
26540;SDS011;14206;50.202;10.948;2023-06-14T08:58:56;1.10;;;1.00;;
26540;SDS011;14206;50.202;10.948;2023-06-14T09:01:23;1.02;;;0.93;;
26540;SDS011;14206;50.202;10.948;2023-06-14T09:03:51;0.80;;;0.80;;
26540;SDS011;14206;50.202;10.948;2023-06-14T09:06:18;0.90;;;0.88;;
26540;SDS011;14206;50.202;10.948;2023-06-14T09:08:49;1.00;;;0.90;;
26540;SDS011;14206;50.202;10.948;2023-06-14T09:11:17;1.30;;;1.00;;
26540;SDS011;14206;50.202;10.948;2023-06-14T09:13:45;2.60;;;0.90;;
26540;SDS011;14206;50.202;10.948;2023-06-14T09:16:13;1.50;;;1.40;;
26540;SDS011;14206;50.202;10.948;2023-06-14T09:18:44;0.88;;;0.88;;
26540;SDS011;14206;50.202;10.948;2023-06-14T09:21:14;1.15;;;1.05;;
26540;SDS011;14206;50.202;10.948;2023-06-14T09:23:43;1.42;;;0.90;;
26540;SDS011;14206;50.202;10.948;2023-06-14T09:26:15;2.55;;;1.10;;
26540;SDS011;14206;50.202;10.948;2023-06-14T09:28:50;1.00;;;0.80;;
26540;SDS011;14206;50.202;10.948;2023-06-14T09:31:18;1.02;;;0.80;;
26540;SDS011;14206;50.202;10.948;2023-06-14T09:33:49;0.73;;;0.73;;
26540;SDS011;14206;50.202;10.948;2023-06-14T09:36:24;1.90;;;1.10;;
26540;SDS011;14206;50.202;10.948;2023-06-14T09:38:55;1.10;;;1.00;;
26540;SDS011;14206;50.202;10.948;2023-06-14T09:41:34;1.20;;;1.10;;
26540;SDS011;14206;50.202;10.948;2023-06-14T09:44:06;1.20;;;1.10;;
26540;SDS011;14206;50.202;10.948;2023-06-14T09:46:39;1.10;;;1.00;;
26540;SDS011;14206;50.202;10.948;2023-06-14T09:49:06;0.90;;;0.90;;
26540;SDS011;14206;50.202;10.948;2023-06-14T09:51:36;1.10;;;1.00;;
26540;SDS011;14206;50.202;10.948;2023-06-14T09:54:14;0.98;;;0.98;;
26540;SDS011;14206;50.202;10.948;2023-06-14T09:56:46;1.90;;;1.10;;
26540;SDS011;14206;50.202;10.948;2023-06-14T09:59:13;1.85;;;1.33;;
26540;SDS011;14206;50.202;10.948;2023-06-14T10:01:45;3.53;;;1.60;;
26540;SDS011;14206;50.202;10.948;2023-06-14T10:04:13;1.50;;;1.40;;
26540;SDS011;14206;50.202;10.948;2023-06-14T10:06:45;1.17;;;1.00;;
26540;SDS011;14206;50.202;10.948;2023-06-14T10:09:12;2.13;;;1.20;;
26540;SDS011;14206;50.202;10.948;2023-06-14T10:11:40;1.10;;;0.90;;
26540;SDS011;14206;50.202;10.948;2023-06-14T10:14:11;1.52;;;1.40;;
26540;SDS011;14206;50.202;10.948;2023-06-14T10:19:46;1.33;;;1.08;;
26540;SDS011;14206;50.202;10.948;2023-06-14T10:22:24;1.25;;;1.15;;
26540;SDS011;14206;50.202;10.948;2023-06-14T10:24:56;1.13;;;1.05;;
26540;SDS011;14206;50.202;10.948;2023-06-14T10:27:23;0.88;;;0.80;;
26540;SDS011;14206;50.202;10.948;2023-06-14T10:32:24;1.52;;;1.42;;
26540;SDS011;14206;50.202;10.948;2023-06-14T10:34:55;1.52;;;1.42;;
26540;SDS011;14206;50.202;10.948;2023-06-14T10:37:23;2.63;;;1.20;;
26540;SDS011;14206;50.202;10.948;2023-06-14T10:39:51;1.20;;;1.10;;
26540;SDS011;14206;50.202;10.948;2023-06-14T10:42:19;1.20;;;1.10;;
26540;SDS011;14206;50.202;10.948;2023-06-14T10:44:55;1.33;;;1.00;;
26540;SDS011;14206;50.202;10.948;2023-06-14T10:47:26;1.00;;;1.00;;
26540;SDS011;14206;50.202;10.948;2023-06-14T10:52:28;0.90;;;0.90;;
26540;SDS011;14206;50.202;10.948;2023-06-14T10:57:27;1.00;;;1.00;;
26540;SDS011;14206;50.202;10.948;2023-06-14T10:59:54;1.00;;;0.90;;
26540;SDS011;14206;50.202;10.948;2023-06-14T11:10:05;1.10;;;1.00;;
26540;SDS011;14206;50.202;10.948;2023-06-14T11:12:40;1.15;;;1.13;;
26540;SDS011;14206;50.202;10.948;2023-06-14T11:15:11;1.75;;;1.35;;
26540;SDS011;14206;50.202;10.948;2023-06-14T11:17:37;1.42;;;1.30;;
26540;SDS011;14206;50.202;10.948;2023-06-14T11:20:11;2.45;;;1.30;;
26540;SDS011;14206;50.202;10.948;2023-06-14T11:22:42;1.25;;;1.10;;
26540;SDS011;14206;50.202;10.948;2023-06-14T11:25:11;1.63;;;1.48;;
26540;SDS011;14206;50.202;10.948;2023-06-14T11:27:45;1.15;;;0.93;;
26540;SDS011;14206;50.202;10.948;2023-06-14T11:30:13;1.00;;;1.00;;
26540;SDS011;14206;50.202;10.948;2023-06-14T11:32:40;1.73;;;1.63;;
26540;SDS011;14206;50.202;10.948;2023-06-14T11:35:07;1.55;;;1.30;;
26540;SDS011;14206;50.202;10.948;2023-06-14T11:37:35;1.30;;;1.20;;
26540;SDS011;14206;50.202;10.948;2023-06-14T11:40:06;1.40;;;1.30;;
26540;SDS011;14206;50.202;10.948;2023-06-14T11:42:40;1.67;;;1.50;;
26540;SDS011;14206;50.202;10.948;2023-06-14T11:45:08;1.20;;;1.10;;
26540;SDS011;14206;50.202;10.948;2023-06-14T11:47:37;1.85;;;0.98;;
26540;SDS011;14206;50.202;10.948;2023-06-14T11:50:06;1.23;;;1.13;;
26540;SDS011;14206;50.202;10.948;2023-06-14T11:52:37;1.30;;;1.08;;
26540;SDS011;14206;50.202;10.948;2023-06-14T11:55:04;1.30;;;1.20;;
26540;SDS011;14206;50.202;10.948;2023-06-14T11:57:36;1.38;;;1.27;;
26540;SDS011;14206;50.202;10.948;2023-06-14T12:00:03;1.52;;;1.23;;
26540;SDS011;14206;50.202;10.948;2023-06-14T12:02:41;2.92;;;1.63;;
26540;SDS011;14206;50.202;10.948;2023-06-14T12:05:09;1.38;;;1.27;;
26540;SDS011;14206;50.202;10.948;2023-06-14T12:07:39;1.83;;;1.30;;
26540;SDS011;14206;50.202;10.948;2023-06-14T12:10:08;1.30;;;1.20;;
26540;SDS011;14206;50.202;10.948;2023-06-14T12:12:39;1.40;;;1.30;;
26540;SDS011;14206;50.202;10.948;2023-06-14T12:15:07;1.20;;;1.10;;
26540;SDS011;14206;50.202;10.948;2023-06-14T12:17:35;1.20;;;1.10;;
26540;SDS011;14206;50.202;10.948;2023-06-14T12:20:05;1.02;;;0.90;;
26540;SDS011;14206;50.202;10.948;2023-06-14T12:22:46;0.90;;;0.90;;
26540;SDS011;14206;50.202;10.948;2023-06-14T12:25:50;1.85;;;1.50;;
26540;SDS011;14206;50.202;10.948;2023-06-14T12:28:14;1.30;;;1.20;;
26540;SDS011;14206;50.202;10.948;2023-06-14T12:30:53;1.75;;;1.30;;
26540;SDS011;14206;50.202;10.948;2023-06-14T12:33:21;1.48;;;1.20;;
26540;SDS011;14206;50.202;10.948;2023-06-14T12:36:11;1.77;;;1.20;;
26540;SDS011;14206;50.202;10.948;2023-06-14T12:38:39;1.30;;;1.20;;
26540;SDS011;14206;50.202;10.948;2023-06-14T12:41:06;0.90;;;0.90;;
26540;SDS011;14206;50.202;10.948;2023-06-14T12:43:34;1.33;;;1.20;;
26540;SDS011;14206;50.202;10.948;2023-06-14T12:46:01;1.33;;;1.23;;
26540;SDS011;14206;50.202;10.948;2023-06-14T12:48:28;1.40;;;1.30;;
26540;SDS011;14206;50.202;10.948;2023-06-14T12:50:57;1.60;;;1.33;;
26540;SDS011;14206;50.202;10.948;2023-06-14T12:53:24;2.03;;;1.50;;
26540;SDS011;14206;50.202;10.948;2023-06-14T12:55:52;1.10;;;1.10;;
26540;SDS011;14206;50.202;10.948;2023-06-14T12:58:19;1.20;;;1.10;;
26540;SDS011;14206;50.202;10.948;2023-06-14T13:00:46;1.30;;;1.20;;
26540;SDS011;14206;50.202;10.948;2023-06-14T13:03:14;1.50;;;1.38;;
26540;SDS011;14206;50.202;10.948;2023-06-14T13:05:41;2.25;;;1.40;;
26540;SDS011;14206;50.202;10.948;2023-06-14T13:08:11;1.73;;;1.42;;
26540;SDS011;14206;50.202;10.948;2023-06-14T13:10:38;1.30;;;1.20;;
26540;SDS011;14206;50.202;10.948;2023-06-14T13:13:05;1.35;;;1.25;;
26540;SDS011;14206;50.202;10.948;2023-06-14T13:15:34;1.25;;;1.17;;
26540;SDS011;14206;50.202;10.948;2023-06-14T13:18:02;1.92;;;1.30;;
26540;SDS011;14206;50.202;10.948;2023-06-14T13:20:29;1.55;;;1.17;;
26540;SDS011;14206;50.202;10.948;2023-06-14T13:22:57;1.20;;;1.10;;
26540;SDS011;14206;50.202;10.948;2023-06-14T13:25:24;1.65;;;1.55;;
26540;SDS011;14206;50.202;10.948;2023-06-14T13:27:51;1.30;;;1.20;;
26540;SDS011;14206;50.202;10.948;2023-06-14T13:30:18;1.38;;;1.27;;
26540;SDS011;14206;50.202;10.948;2023-06-14T13:32:45;1.00;;;1.00;;
26540;SDS011;14206;50.202;10.948;2023-06-14T13:35:15;1.20;;;1.10;;
26540;SDS011;14206;50.202;10.948;2023-06-14T13:37:42;2.53;;;1.88;;
26540;SDS011;14206;50.202;10.948;2023-06-14T13:40:10;2.20;;;2.00;;
26540;SDS011;14206;50.202;10.948;2023-06-14T13:42:37;3.88;;;1.70;;
26540;SDS011;14206;50.202;10.948;2023-06-14T13:45:04;2.42;;;2.03;;
26540;SDS011;14206;50.202;10.948;2023-06-14T13:47:32;1.80;;;1.67;;
26540;SDS011;14206;50.202;10.948;2023-06-14T13:49:59;2.63;;;1.88;;
26540;SDS011;14206;50.202;10.948;2023-06-14T13:52:26;1.60;;;1.50;;
26540;SDS011;14206;50.202;10.948;2023-06-14T13:54:53;2.13;;;1.50;;
26540;SDS011;14206;50.202;10.948;2023-06-14T13:57:20;1.20;;;1.10;;
26540;SDS011;14206;50.202;10.948;2023-06-14T13:59:46;1.40;;;1.00;;
26540;SDS011;14206;50.202;10.948;2023-06-14T14:02:14;1.63;;;1.52;;
26540;SDS011;14206;50.202;10.948;2023-06-14T14:04:41;1.80;;;1.45;;
26540;SDS011;14206;50.202;10.948;2023-06-14T14:07:08;1.58;;;1.48;;
26540;SDS011;14206;50.202;10.948;2023-06-14T14:09:35;1.90;;;1.70;;
26540;SDS011;14206;50.202;10.948;2023-06-14T14:12:02;1.80;;;1.70;;
26540;SDS011;14206;50.202;10.948;2023-06-14T14:14:30;2.88;;;1.67;;
26540;SDS011;14206;50.202;10.948;2023-06-14T14:16:58;1.80;;;1.70;;
26540;SDS011;14206;50.202;10.948;2023-06-14T14:19:25;1.40;;;1.23;;
26540;SDS011;14206;50.202;10.948;2023-06-14T14:21:52;1.65;;;1.55;;
26540;SDS011;14206;50.202;10.948;2023-06-14T14:24:20;1.40;;;1.30;;
26540;SDS011;14206;50.202;10.948;2023-06-14T14:26:47;1.60;;;1.50;;
26540;SDS011;14206;50.202;10.948;2023-06-14T14:29:16;3.58;;;1.90;;
26540;SDS011;14206;50.202;10.948;2023-06-14T14:31:43;3.05;;;1.80;;
26540;SDS011;14206;50.202;10.948;2023-06-14T14:34:10;3.33;;;2.13;;
26540;SDS011;14206;50.202;10.948;2023-06-14T14:36:38;1.98;;;1.73;;
26540;SDS011;14206;50.202;10.948;2023-06-14T14:39:08;1.95;;;1.30;;
26540;SDS011;14206;50.202;10.948;2023-06-14T14:41:35;1.63;;;1.52;;
26540;SDS011;14206;50.202;10.948;2023-06-14T14:44:07;1.50;;;1.00;;
26540;SDS011;14206;50.202;10.948;2023-06-14T14:46:34;1.50;;;1.40;;
26540;SDS011;14206;50.202;10.948;2023-06-14T14:49:02;1.33;;;1.15;;
26540;SDS011;14206;50.202;10.948;2023-06-14T14:51:28;2.08;;;1.40;;
26540;SDS011;14206;50.202;10.948;2023-06-14T14:53:55;2.10;;;1.90;;
26540;SDS011;14206;50.202;10.948;2023-06-14T14:56:22;1.50;;;1.40;;
26540;SDS011;14206;50.202;10.948;2023-06-14T14:58:50;1.50;;;1.40;;
26540;SDS011;14206;50.202;10.948;2023-06-14T15:01:17;2.47;;;1.65;;
26540;SDS011;14206;50.202;10.948;2023-06-14T15:03:44;1.70;;;1.60;;